Time;durP1;ratioP1;P1;durP2;ratioP2;P2;SDS_P1;SDS_P2;PMS_P1;PMS_P2;Temp;Humidity;BMP_temperature;BMP_pressure;BME280_temperature;BME280_humidity;BME280_pressure;Samples;Min_cycle;Max_cycle;Signal;HPM_P1;HPM_P2
2023/06/26 00:02:20;;;;;;;5.85;4.60;;;21.90;99.90;;;;;;4897163;29;20212;-82
2023/06/26 00:05:07;;;;;;;5.60;3.92;;;21.90;99.90;;;;;;4896621;29;20060;-81
2023/06/26 00:07:53;;;;;;;6.32;4.18;;;22.00;99.90;;;;;;4903015;29;20043;-81
2023/06/26 00:10:40;;;;;;;5.38;3.90;;;21.90;99.90;;;;;;4885048;29;20045;-81
2023/06/26 00:13:26;;;;;;;7.00;4.85;;;21.90;99.90;;;;;;4897975;29;20837;-81
2023/06/26 00:16:12;;;;;;;5.40;4.15;;;22.00;99.90;;;;;;4891591;29;20048;-81
2023/06/26 00:18:59;;;;;;;7.45;4.30;;;21.90;99.90;;;;;;4885987;29;20135;-81
2023/06/26 00:21:47;;;;;;;6.25;4.43;;;21.90;99.90;;;;;;4902839;29;20063;-81
2023/06/26 00:24:33;;;;;;;;;;;21.90;99.90;;;;;;4884789;29;20041;-81
2023/06/26 00:27:19;;;;;;;6.22;4.60;;;21.80;99.90;;;;;;4916510;29;20433;-81
2023/06/26 00:30:05;;;;;;;6.07;4.40;;;21.80;99.90;;;;;;4893894;29;20063;-81
2023/06/26 00:32:52;;;;;;;7.13;4.15;;;21.80;99.90;;;;;;4906970;29;20048;-81
2023/06/26 00:35:38;;;;;;;8.63;5.05;;;21.80;99.90;;;;;;4883925;29;20048;-81
2023/06/26 00:38:24;;;;;;;5.97;4.30;;;21.80;99.90;;;;;;4870392;29;20052;-82
2023/06/26 00:41:12;;;;;;;4.50;3.92;;;21.70;99.90;;;;;;4887668;29;20553;-80
2023/06/26 00:43:58;;;;;;;6.88;5.05;;;21.60;99.90;;;;;;4883931;29;20044;-81
2023/06/26 00:46:44;;;;;;;5.80;4.38;;;21.60;99.90;;;;;;4908417;29;20045;-81
2023/06/26 00:49:30;;;;;;;7.97;4.50;;;21.60;99.90;;;;;;4894987;29;20044;-81
2023/06/26 00:52:17;;;;;;;5.25;4.55;;;21.50;99.90;;;;;;4888261;29;20048;-81
2023/06/26 00:55:05;;;;;;;6.28;4.53;;;21.50;99.90;;;;;;4885175;29;20041;-81
2023/06/26 00:57:51;;;;;;;7.15;4.18;;;21.50;99.90;;;;;;4883320;29;20120;-82
2023/06/26 01:00:37;;;;;;;6.38;4.53;;;21.40;99.90;;;;;;4899612;29;20040;-81
2023/06/26 01:03:23;;;;;;;5.68;4.80;;;21.40;99.90;;;;;;4882456;29;20056;-81
2023/06/26 01:06:11;;;;;;;17.42;5.25;;;21.40;99.90;;;;;;4892821;29;20370;-81
2023/06/26 01:08:58;;;;;;;5.53;4.35;;;21.40;99.90;;;;;;4888915;29;20126;-81
2023/06/26 01:11:45;;;;;;;7.03;4.90;;;21.40;99.90;;;;;;4883495;29;20129;-81
2023/06/26 01:14:32;;;;;;;5.70;4.45;;;21.30;99.90;;;;;;4886043;29;20040;-81
2023/06/26 01:17:18;;;;;;;8.10;5.10;;;21.30;99.90;;;;;;4890253;29;20051;-81
2023/06/26 01:20:08;;;;;;;6.50;4.10;;;21.30;99.90;;;;;;4887936;29;20048;-81
2023/06/26 01:23:17;;;;;;;5.72;4.90;;;21.30;99.90;;;;;;4905985;29;20072;-80
2023/06/26 01:26:21;;;;;;;7.03;4.97;;;21.40;99.90;;;;;;4886674;29;20560;-81
2023/06/26 01:29:07;;;;;;;5.55;4.47;;;21.20;99.90;;;;;;4908741;29;20470;-81
2023/06/26 01:31:53;;;;;;;8.13;5.05;;;21.20;99.90;;;;;;4901204;29;20048;-81
2023/06/26 01:34:39;;;;;;;6.00;4.70;;;21.20;99.90;;;;;;4895617;29;20474;-80
2023/06/26 01:37:25;;;;;;;7.13;4.28;;;21.20;99.90;;;;;;4888744;29;20044;-81
2023/06/26 01:40:11;;;;;;;6.15;4.78;;;21.20;99.90;;;;;;4885712;29;20514;-80
2023/06/26 01:42:57;;;;;;;5.93;4.35;;;21.20;99.90;;;;;;4889584;29;20123;-82
2023/06/26 01:45:43;;;;;;;8.05;4.57;;;21.20;99.90;;;;;;4888317;29;20130;-82
2023/06/26 01:48:35;;;;;;;9.45;4.80;;;21.10;99.90;;;;;;4883641;29;20395;-81
2023/06/26 01:51:21;;;;;;;6.75;4.68;;;21.10;99.90;;;;;;4909353;29;20040;-81
2023/06/26 01:54:10;;;;;;;6.53;4.65;;;21.00;99.90;;;;;;4882985;29;20048;-82
2023/06/26 01:56:56;;;;;;;6.30;4.68;;;21.00;99.90;;;;;;4895064;29;20043;-82
2023/06/26 01:59:42;;;;;;;6.40;4.93;;;21.00;99.90;;;;;;4887260;29;20063;-81
2023/06/26 02:02:29;;;;;;;5.53;4.05;;;21.00;99.90;;;;;;4883217;29;20059;-81
2023/06/26 02:05:15;;;;;;;6.03;4.90;;;20.90;99.90;;;;;;4910898;29;20364;-81
2023/06/26 02:08:04;;;;;;;7.63;5.10;;;21.00;99.90;;;;;;4902200;29;20377;-81
2023/06/26 02:10:50;;;;;;;7.47;4.60;;;20.90;99.90;;;;;;4894024;29;20040;-81
2023/06/26 02:13:36;;;;;;;7.60;5.18;;;20.90;99.90;;;;;;4890678;29;20135;-81
2023/06/26 02:16:23;;;;;;;7.75;4.88;;;20.90;99.90;;;;;;4908361;29;20104;-81
2023/06/26 02:19:09;;;;;;;8.65;4.78;;;20.90;99.90;;;;;;4888423;29;20490;-81
2023/06/26 02:21:55;;;;;;;6.13;4.72;;;20.80;99.90;;;;;;4899025;29;20219;-81
2023/06/26 02:24:41;;;;;;;6.28;5.00;;;20.80;99.90;;;;;;4900972;29;20044;-81
2023/06/26 02:27:27;;;;;;;6.72;4.78;;;20.80;99.90;;;;;;4878026;29;20040;-81
2023/06/26 02:30:13;;;;;;;6.13;4.72;;;20.80;99.90;;;;;;4885643;29;20059;-81
2023/06/26 02:32:59;;;;;;;7.20;4.60;;;20.80;99.90;;;;;;4902259;29;20091;-81
2023/06/26 02:35:45;;;;;;;5.80;4.72;;;20.80;99.90;;;;;;4897673;29;20050;-81
2023/06/26 02:38:31;;;;;;;5.28;4.57;;;20.70;99.90;;;;;;4900213;29;20166;-81
2023/06/26 02:41:17;;;;;;;7.18;5.10;;;20.70;99.90;;;;;;4885795;29;20071;-80
2023/06/26 02:44:03;;;;;;;8.52;5.10;;;20.70;99.90;;;;;;4887457;29;20059;-80
2023/06/26 02:46:49;;;;;;;7.15;4.70;;;20.60;99.90;;;;;;4888512;29;20050;-81
2023/06/26 02:49:35;;;;;;;5.97;4.65;;;20.60;99.90;;;;;;4887010;29;20107;-80
2023/06/26 02:52:21;;;;;;;9.18;5.18;;;20.60;99.90;;;;;;4901231;29;20044;-80
2023/06/26 02:55:07;;;;;;;6.70;4.60;;;20.60;99.90;;;;;;4886520;29;20489;-80
2023/06/26 02:57:53;;;;;;;8.82;4.80;;;20.50;99.90;;;;;;4887697;29;20044;-80
2023/06/26 03:00:41;;;;;;;6.28;4.55;;;20.50;99.90;;;;;;4888140;29;20469;-81
2023/06/26 03:03:27;;;;;;;6.10;4.72;;;20.50;99.90;;;;;;4886663;29;20047;-81
2023/06/26 03:06:13;;;;;;;7.25;4.85;;;20.50;99.90;;;;;;4895482;29;20036;-80
2023/06/26 03:08:59;;;;;;;5.15;4.43;;;20.50;99.90;;;;;;4873394;29;20111;-80
2023/06/26 03:11:45;;;;;;;5.80;4.28;;;20.50;99.90;;;;;;4900980;29;20474;-80
2023/06/26 03:14:31;;;;;;;8.32;4.60;;;20.50;99.90;;;;;;4888164;29;20044;-80
2023/06/26 03:17:17;;;;;;;6.15;4.75;;;20.50;99.90;;;;;;4886451;29;20051;-80
2023/06/26 03:20:06;;;;;;;7.38;4.38;;;20.40;99.90;;;;;;4882549;29;20094;-79
2023/06/26 03:22:52;;;;;;;8.70;5.07;;;20.40;99.90;;;;;;4914344;29;20040;-80
2023/06/26 03:25:38;;;;;;;8.10;4.82;;;20.40;99.90;;;;;;4891338;29;20044;-80
2023/06/26 03:28:24;;;;;;;7.55;4.63;;;20.40;99.90;;;;;;4889614;29;20074;-80
2023/06/26 03:31:10;;;;;;;8.35;5.05;;;20.40;99.90;;;;;;4891652;29;20040;-80
2023/06/26 03:33:56;;;;;;;7.80;5.15;;;20.30;99.90;;;;;;4884882;29;20052;-81
2023/06/26 03:36:42;;;;;;;6.45;4.68;;;20.30;99.90;;;;;;4897039;29;20103;-81
2023/06/26 03:39:28;;;;;;;13.07;4.88;;;20.30;99.90;;;;;;4899625;29;20091;-81
2023/06/26 03:42:14;;;;;;;8.40;4.90;;;20.30;99.90;;;;;;4886747;29;20127;-81
2023/06/26 03:45:00;;;;;;;7.22;4.65;;;20.30;99.90;;;;;;4873561;29;20047;-81
2023/06/26 03:47:49;;;;;;;6.35;4.28;;;20.30;99.90;;;;;;4900963;29;20044;-81
2023/06/26 03:50:35;;;;;;;8.40;4.97;;;20.20;99.90;;;;;;4897142;29;20115;-81
2023/06/26 03:53:21;;;;;;;6.70;4.50;;;20.20;99.90;;;;;;4873177;29;20050;-81
2023/06/26 03:56:07;;;;;;;8.68;4.38;;;20.20;99.90;;;;;;4878300;29;20108;-81
2023/06/26 03:58:53;;;;;;;6.95;4.90;;;20.20;99.90;;;;;;4905185;29;20081;-81
2023/06/26 04:01:39;;;;;;;9.10;5.25;;;20.20;99.90;;;;;;4914497;29;20052;-81
2023/06/26 04:04:25;;;;;;;7.88;4.57;;;20.20;99.90;;;;;;4882791;29;20040;-81
2023/06/26 04:07:11;;;;;;;8.38;4.60;;;20.10;99.90;;;;;;4898887;29;20041;-81
2023/06/26 04:09:57;;;;;;;6.68;4.97;;;20.20;99.90;;;;;;4877086;29;20139;-81
2023/06/26 04:12:43;;;;;;;8.70;5.63;;;20.20;99.90;;;;;;4875030;29;20127;-82
2023/06/26 04:15:29;;;;;;;8.05;4.72;;;20.10;99.90;;;;;;4889779;29;20056;-81
2023/06/26 04:18:15;;;;;;;8.73;4.97;;;20.10;99.90;;;;;;4887043;29;20053;-81
2023/06/26 04:21:19;;;;;;;7.32;4.82;;;20.10;99.90;;;;;;4897659;29;20049;-81
2023/06/26 04:24:05;;;;;;;7.30;4.30;;;20.20;99.90;;;;;;4885436;29;20045;-80
2023/06/26 04:26:51;;;;;;;6.85;4.68;;;20.20;99.90;;;;;;4896311;29;20426;-80
2023/06/26 04:29:37;;;;;;;8.82;5.38;;;20.20;99.90;;;;;;4892770;29;20072;-80
2023/06/26 04:32:23;;;;;;;7.70;4.38;;;20.20;99.90;;;;;;4890890;29;20051;-80
2023/06/26 04:35:10;;;;;;;8.75;4.78;;;20.20;99.90;;;;;;4872849;29;20461;-80
2023/06/26 04:37:55;;;;;;;7.65;4.95;;;20.20;99.90;;;;;;4894998;29;20111;-80
2023/06/26 04:40:41;;;;;;;7.40;4.22;;;20.30;99.90;;;;;;4886608;29;20087;-81
2023/06/26 04:43:27;;;;;;;5.68;4.57;;;20.30;99.90;;;;;;4886218;29;20072;-81
2023/06/26 04:46:13;;;;;;;5.88;4.40;;;20.30;99.90;;;;;;4898320;29;20374;-80
2023/06/26 04:48:59;;;;;;;11.02;4.82;;;20.40;99.90;;;;;;4887776;29;20056;-81
2023/06/26 04:51:45;;;;;;;7.30;4.80;;;20.40;99.90;;;;;;4886129;29;20510;-80
2023/06/26 04:54:31;;;;;;;8.50;5.15;;;20.40;99.90;;;;;;4903928;29;20144;-80
2023/06/26 04:57:18;;;;;;;7.47;4.68;;;20.40;99.90;;;;;;4885755;29;20080;-81
2023/06/26 05:00:09;;;;;;;10.27;4.88;;;20.50;99.90;;;;;;4885872;29;20044;-81
2023/06/26 05:03:00;;;;;;;6.88;4.13;;;20.50;99.90;;;;;;4909229;29;20074;-81
2023/06/26 05:05:46;;;;;;;8.40;4.60;;;20.50;99.90;;;;;;4897903;29;20067;-81
2023/06/26 05:08:32;;;;;;;7.47;4.50;;;20.60;99.90;;;;;;4888404;29;20115;-81
2023/06/26 05:11:19;;;;;;;6.05;4.18;;;20.60;99.90;;;;;;4899587;29;20430;-81
2023/06/26 05:14:07;;;;;;;9.80;4.53;;;20.70;99.90;;;;;;4885682;29;20040;-81
2023/06/26 05:16:53;;;;;;;8.80;4.97;;;20.70;99.90;;;;;;4890365;29;20427;-82
2023/06/26 05:19:38;;;;;;;6.25;4.10;;;20.70;99.90;;;;;;4884609;29;20055;-82
2023/06/26 05:22:25;;;;;;;5.80;4.30;;;20.80;99.90;;;;;;4884973;29;20064;-81
2023/06/26 05:25:11;;;;;;;6.25;4.57;;;20.80;99.90;;;;;;4897365;29;20044;-81
2023/06/26 05:27:57;;;;;;;5.57;4.25;;;20.90;99.90;;;;;;4882222;29;20032;-81
2023/06/26 05:30:44;;;;;;;6.60;4.55;;;20.90;99.90;;;;;;4895889;29;20094;-81
2023/06/26 05:33:30;;;;;;;8.45;4.57;;;20.90;99.90;;;;;;4890337;29;20041;-81
2023/06/26 05:36:16;;;;;;;5.90;4.35;;;20.90;99.90;;;;;;4884528;29;20048;-81
2023/06/26 05:39:03;;;;;;;7.13;4.20;;;21.00;99.90;;;;;;4894586;29;20115;-81
2023/06/26 05:41:49;;;;;;;7.80;4.28;;;21.10;99.90;;;;;;4889004;29;20048;-80
2023/06/26 05:44:35;;;;;;;6.20;4.90;;;21.10;99.90;;;;;;4897075;29;20078;-81
2023/06/26 05:47:21;;;;;;;6.57;4.30;;;21.20;99.90;;;;;;4895094;29;20044;-81
2023/06/26 05:50:08;;;;;;;5.75;4.03;;;21.30;99.90;;;;;;4897516;29;20135;-81
2023/06/26 05:52:55;;;;;;;8.03;4.60;;;21.20;99.90;;;;;;4895199;29;20472;-81
2023/06/26 05:55:42;;;;;;;9.00;4.88;;;21.30;99.90;;;;;;4887461;29;20277;-81
2023/06/26 05:58:28;;;;;;;9.25;5.10;;;21.40;99.90;;;;;;4895779;29;20504;-80
2023/06/26 06:01:16;;;;;;;6.05;4.32;;;21.40;99.90;;;;;;4900275;29;20449;-81
2023/06/26 06:04:02;;;;;;;9.65;5.53;;;21.50;99.90;;;;;;4885560;29;20477;-81
2023/06/26 06:06:48;;;;;;;7.45;4.78;;;21.50;99.90;;;;;;4883903;29;20072;-80
2023/06/26 06:09:34;;;;;;;8.55;4.15;;;21.60;99.90;;;;;;4875124;29;20115;-80
2023/06/26 06:12:19;;;;;;;5.90;4.88;;;21.60;99.90;;;;;;4881916;29;20546;-80
2023/06/26 06:15:06;;;;;;;9.18;4.80;;;21.70;99.90;;;;;;4875079;29;20045;-81
2023/06/26 06:17:52;;;;;;;5.15;4.38;;;21.80;99.90;;;;;;4896482;29;20063;-81
2023/06/26 06:20:38;;;;;;;7.28;4.47;;;21.80;99.90;;;;;;4904117;29;20150;-81
2023/06/26 06:23:24;;;;;;;5.93;4.53;;;21.90;99.90;;;;;;4889386;29;20369;-80
2023/06/26 06:26:10;;;;;;;8.82;4.00;;;22.00;99.90;;;;;;4900219;29;20476;-81
2023/06/26 06:28:56;;;;;;;7.97;4.82;;;22.00;99.90;;;;;;4905912;29;20048;-81
2023/06/26 06:31:42;;;;;;;5.35;4.57;;;22.10;99.90;;;;;;4910534;29;20079;-81
2023/06/26 06:34:28;;;;;;;6.85;4.57;;;22.20;99.90;;;;;;4897720;29;20048;-81
2023/06/26 06:37:14;;;;;;;8.00;4.90;;;22.30;99.90;;;;;;4881375;29;20486;-81
2023/06/26 06:40:00;;;;;;;5.50;4.05;;;22.30;99.90;;;;;;4916256;29;20076;-80
2023/06/26 06:42:46;;;;;;;5.45;4.55;;;22.30;99.90;;;;;;4914492;29;20044;-81
2023/06/26 06:45:32;;;;;;;5.78;4.38;;;22.40;99.90;;;;;;4902736;29;20111;-82
2023/06/26 06:48:18;;;;;;;6.65;4.18;;;22.50;99.90;;;;;;4906640;29;20047;-82
2023/06/26 06:51:04;;;;;;;6.20;4.68;;;22.60;99.90;;;;;;4908452;29;20039;-81
2023/06/26 06:53:50;;;;;;;7.95;4.75;;;22.70;99.90;;;;;;4898191;29;20043;-81
2023/06/26 06:56:36;;;;;;;7.30;4.57;;;22.70;99.90;;;;;;4921503;29;20044;-81
2023/06/26 06:59:22;;;;;;;7.45;4.38;;;22.80;99.90;;;;;;4927400;29;20449;-81
2023/06/26 07:02:09;;;;;;;7.28;4.93;;;22.90;99.90;;;;;;4906539;29;20128;-81
2023/06/26 07:04:55;;;;;;;7.40;4.47;;;22.90;99.90;;;;;;4924644;29;20047;-80
2023/06/26 07:07:41;;;;;;;8.50;4.43;;;23.00;99.90;;;;;;4925018;29;20050;-81
2023/06/26 07:10:27;;;;;;;8.20;5.00;;;23.20;99.90;;;;;;4915720;29;20048;-81
2023/06/26 07:13:13;;;;;;;5.60;4.65;;;23.20;99.90;;;;;;4915898;29;20043;-81
2023/06/26 07:15:59;;;;;;;5.43;4.72;;;23.20;99.90;;;;;;4896050;29;20048;-81
2023/06/26 07:18:44;;;;;;;6.85;5.05;;;23.30;99.90;;;;;;4918385;29;20044;-81
2023/06/26 07:21:30;;;;;;;7.05;4.82;;;23.40;99.90;;;;;;4905475;29;20123;-81
2023/06/26 07:24:16;;;;;;;10.82;4.90;;;23.40;99.90;;;;;;4909128;29;20047;-81
2023/06/26 07:27:03;;;;;;;10.10;4.63;;;23.50;99.90;;;;;;4908230;29;20040;-81
2023/06/26 07:29:49;;;;;;;6.93;4.55;;;23.60;99.90;;;;;;4920448;29;20062;-81
2023/06/26 07:32:35;;;;;;;6.40;5.22;;;23.70;99.90;;;;;;4905897;29;20453;-81
2023/06/26 07:35:21;;;;;;;6.53;4.65;;;24.00;99.90;;;;;;4909157;29;20089;-81
2023/06/26 07:38:07;;;;;;;6.18;4.75;;;24.10;99.90;;;;;;4921598;29;20047;-81
2023/06/26 07:40:53;;;;;;;5.97;4.90;;;24.20;99.90;;;;;;4904827;29;20044;-82
2023/06/26 07:43:39;;;;;;;6.93;4.95;;;24.30;99.60;;;;;;4921071;29;20051;-81
2023/06/26 07:46:25;;;;;;;9.05;5.13;;;24.30;99.60;;;;;;4918809;29;20048;-81
2023/06/26 07:49:12;;;;;;;8.55;5.75;;;24.40;99.30;;;;;;4898709;29;20434;-81
2023/06/26 07:51:59;;;;;;;8.57;6.38;;;24.50;99.30;;;;;;4917817;29;20044;-81
2023/06/26 07:54:45;;;;;;;14.10;8.35;;;24.50;99.50;;;;;;4904860;29;20373;-82
2023/06/26 07:57:32;;;;;;;8.55;6.20;;;24.50;99.50;;;;;;4919288;29;20046;-81
2023/06/26 08:00:18;;;;;;;8.15;5.05;;;24.60;99.40;;;;;;4904845;29;20410;-82
2023/06/26 08:03:04;;;;;;;7.03;4.93;;;24.90;98.60;;;;;;4912555;29;20040;-81
2023/06/26 08:05:50;;;;;;;10.55;5.93;;;25.20;97.40;;;;;;4895817;29;20549;-81
2023/06/26 08:08:36;;;;;;;11.40;5.13;;;25.30;96.20;;;;;;4905013;29;20040;-81
2023/06/26 08:11:22;;;;;;;10.55;5.47;;;25.40;95.70;;;;;;4904132;29;20406;-82
2023/06/26 08:14:08;;;;;;;10.80;5.28;;;25.50;95.30;;;;;;4920131;29;20138;-81
2023/06/26 08:16:54;;;;;;;8.88;5.28;;;25.60;94.90;;;;;;4909451;29;20044;-81
2023/06/26 08:19:40;;;;;;;10.75;5.70;;;25.70;93.00;;;;;;4923178;29;20045;-81
2023/06/26 08:22:26;;;;;;;6.70;4.75;;;25.70;92.10;;;;;;4909872;29;20090;-81
2023/06/26 08:25:12;;;;;;;7.93;5.18;;;26.00;92.80;;;;;;4917002;29;20458;-81
2023/06/26 08:27:59;;;;;;;7.13;4.65;;;26.00;92.00;;;;;;4912463;29;20513;-81
2023/06/26 08:30:46;;;;;;;7.70;5.17;;;25.90;92.20;;;;;;4906505;29;20072;-81
2023/06/26 08:33:32;;;;;;;5.93;4.60;;;26.00;91.30;;;;;;4924085;29;20279;-81
2023/06/26 08:36:18;;;;;;;5.03;4.20;;;26.00;91.30;;;;;;4903648;29;20110;-80
2023/06/26 08:39:05;;;;;;;6.40;4.80;;;26.00;91.20;;;;;;4908246;29;20080;-80
2023/06/26 08:41:52;;;;;;;5.47;4.47;;;26.10;91.70;;;;;;4922416;29;20044;-81
2023/06/26 08:44:38;;;;;;;6.60;5.13;;;26.20;91.20;;;;;;4906686;29;20058;-81
2023/06/26 08:47:24;;;;;;;5.95;4.85;;;26.20;91.00;;;;;;4903705;29;20047;-82
2023/06/26 08:50:13;;;;;;;8.43;5.00;;;26.20;91.10;;;;;;4898565;29;20366;-81
2023/06/26 08:53:29;;;;;;;8.45;5.32;;;26.10;91.80;;;;;;4905902;29;20074;-81
2023/06/26 08:56:17;;;;;;;8.30;4.90;;;26.00;91.10;;;;;;4920163;29;20048;-81
2023/06/26 08:59:04;;;;;;;7.10;4.60;;;26.20;92.10;;;;;;4905187;29;20044;-81
2023/06/26 09:01:50;;;;;;;5.87;4.97;;;26.10;91.40;;;;;;4910833;29;20115;-81
2023/06/26 09:04:36;;;;;;;5.60;4.80;;;26.20;91.90;;;;;;4920882;29;20048;-81
2023/06/26 09:07:22;;;;;;;5.60;5.00;;;26.20;92.00;;;;;;4914365;29;20506;-81
2023/06/26 09:10:08;;;;;;;7.63;4.68;;;26.30;91.60;;;;;;4904849;29;20474;-81
2023/06/26 09:12:57;;;;;;;9.00;5.43;;;26.30;91.90;;;;;;4915098;29;20051;-82
2023/06/26 09:15:44;;;;;;;6.35;4.80;;;26.40;92.10;;;;;;4912968;29;20544;-82
2023/06/26 09:18:30;;;;;;;5.32;4.50;;;26.40;91.90;;;;;;4910503;29;20620;-82
2023/06/26 09:21:16;;;;;;;6.65;5.45;;;26.50;92.60;;;;;;4913598;29;20060;-81
2023/06/26 09:24:02;;;;;;;7.53;4.65;;;26.40;91.70;;;;;;4919633;29;20431;-81
2023/06/26 09:26:49;;;;;;;6.28;5.30;;;26.40;92.20;;;;;;4903174;29;20044;-82
2023/06/26 09:29:35;;;;;;;5.13;4.63;;;26.50;92.20;;;;;;4926198;29;20036;-81
2023/06/26 09:32:23;;;;;;;7.93;5.30;;;26.60;91.50;;;;;;4909864;29;20421;-81
2023/06/26 09:35:10;;;;;;;7.70;5.10;;;26.50;91.30;;;;;;4912119;29;20054;-81
2023/06/26 09:37:56;;;;;;;8.00;4.95;;;26.60;92.20;;;;;;4918817;29;20076;-82
2023/06/26 09:40:42;;;;;;;6.53;4.57;;;26.60;91.40;;;;;;4914121;29;20067;-82
2023/06/26 09:43:28;;;;;;;6.57;4.97;;;26.60;91.60;;;;;;4902980;29;20564;-81
2023/06/26 09:46:27;;;;;;;6.07;4.70;;;26.70;91.60;;;;;;4892302;29;20047;-81
2023/06/26 09:49:13;;;;;;;9.13;4.85;;;26.80;91.20;;;;;;4915738;29;20457;-82
2023/06/26 09:52:00;;;;;;;5.78;4.80;;;26.90;91.70;;;;;;4906496;29;20048;-82
2023/06/26 09:54:46;;;;;;;6.13;5.22;;;26.90;91.50;;;;;;4908364;29;20469;-82
2023/06/26 09:57:34;;;;;;;5.85;4.93;;;26.90;91.80;;;;;;4892750;29;20074;-82
2023/06/26 10:00:20;;;;;;;7.45;5.05;;;27.00;92.10;;;;;;4903249;29;20115;-82
2023/06/26 10:03:06;;;;;;;7.82;5.20;;;27.00;91.90;;;;;;4906546;29;20128;-81
2023/06/26 10:05:53;;;;;;;7.57;5.13;;;27.10;92.90;;;;;;4920515;29;20134;-81
2023/06/26 10:08:39;;;;;;;8.85;5.35;;;27.20;92.90;;;;;;4890102;29;20059;-81
2023/06/26 10:11:25;;;;;;;8.25;5.40;;;27.20;92.90;;;;;;4905489;29;20365;-81
2023/06/26 10:14:11;;;;;;;8.82;4.82;;;27.30;93.30;;;;;;4922365;29;20051;-81
2023/06/26 10:16:58;;;;;;;9.55;5.65;;;27.30;92.90;;;;;;4906944;29;20355;-81
2023/06/26 10:19:45;;;;;;;8.70;5.57;;;27.20;92.50;;;;;;4909061;29;20095;-82
2023/06/26 10:22:34;;;;;;;7.18;5.45;;;27.20;91.90;;;;;;4895851;29;20340;-81
2023/06/26 10:25:20;;;;;;;8.45;5.80;;;27.30;92.20;;;;;;4915816;29;20127;-81
2023/06/26 10:28:06;;;;;;;9.18;5.68;;;27.20;91.60;;;;;;4895126;29;20051;-81
2023/06/26 10:30:52;;;;;;;10.98;5.97;;;27.10;91.60;;;;;;4923631;29;20043;-81
2023/06/26 10:33:39;;;;;;;7.28;6.38;;;27.20;92.10;;;;;;4918270;29;20044;-80
2023/06/26 10:36:30;;;;;;;7.07;5.88;;;27.30;92.10;;;;;;4907603;29;20536;-82
2023/06/26 10:39:16;;;;;;;8.77;6.65;;;27.20;92.70;;;;;;4909916;29;20376;-81
2023/06/26 10:42:08;;;;;;;10.10;6.50;;;27.30;92.60;;;;;;4906742;29;20050;-84
2023/06/26 10:44:54;;;;;;;9.35;6.78;;;27.40;92.30;;;;;;4919581;29;20373;-81
2023/06/26 10:47:41;;;;;;;9.13;6.88;;;27.30;92.90;;;;;;4901637;29;20059;-81
2023/06/26 10:50:40;;;;;;;9.75;7.70;;;27.20;92.60;;;;;;4922319;29;20049;-82
2023/06/26 10:53:26;;;;;;;9.88;7.18;;;27.00;93.00;;;;;;4905928;29;20040;-82
2023/06/26 10:56:12;;;;;;;10.87;7.33;;;26.80;93.40;;;;;;4932988;29;20094;-83
2023/06/26 10:59:13;;;;;;;16.50;7.80;;;26.60;94.20;;;;;;4911006;29;20385;-82
2023/06/26 11:02:04;;;;;;;11.38;7.30;;;26.50;94.00;;;;;;4887345;29;20044;-82
2023/06/26 11:04:52;;;;;;;11.20;7.30;;;26.50;94.50;;;;;;4894485;29;20347;-84
2023/06/26 11:07:38;;;;;;;14.00;7.60;;;26.30;94.40;;;;;;4905724;29;20051;-82
2023/06/26 11:10:24;;;;;;;10.93;7.65;;;26.10;94.60;;;;;;4919302;29;20048;-81
2023/06/26 11:13:10;;;;;;;11.27;7.90;;;26.00;94.70;;;;;;4917584;29;20351;-83
2023/06/26 11:15:56;;;;;;;14.07;7.95;;;25.90;94.80;;;;;;4901928;29;20044;-82
2023/06/26 11:18:42;;;;;;;12.63;8.40;;;25.80;95.20;;;;;;4905626;29;20052;-81
2023/06/26 11:21:28;;;;;;;10.70;7.95;;;25.80;94.80;;;;;;4890655;29;20056;-82
2023/06/26 11:24:14;;;;;;;12.27;7.53;;;25.70;94.80;;;;;;4889696;29;20040;-83
2023/06/26 11:27:02;;;;;;;10.93;7.20;;;25.50;94.50;;;;;;4895730;29;20462;-81
2023/06/26 11:29:49;;;;;;;8.95;7.50;;;25.40;95.10;;;;;;4886494;29;20064;-81
2023/06/26 11:32:36;;;;;;;19.02;9.20;;;25.40;95.50;;;;;;4887003;29;20438;-81
2023/06/26 11:35:30;;;;;;;17.88;8.60;;;25.20;96.00;;;;;;4892776;29;20059;-81
2023/06/26 11:38:16;;;;;;;22.42;9.63;;;25.30;96.90;;;;;;4897114;29;20426;-84
2023/06/26 11:41:03;;;;;;;13.60;8.45;;;25.20;97.60;;;;;;4891577;29;20047;-82
2023/06/26 11:43:49;;;;;;;16.98;7.97;;;25.00;98.10;;;;;;4889406;29;20725;-82
2023/06/26 11:46:35;;;;;;;11.40;7.40;;;24.90;97.70;;;;;;4886889;29;20408;-84
2023/06/26 11:49:23;;;;;;;12.07;7.75;;;24.50;97.50;;;;;;4883488;29;20044;-82
2023/06/26 11:52:09;;;;;;;12.68;6.25;;;24.40;97.30;;;;;;4886055;29;20493;-81
2023/06/26 11:54:54;;;;;;;9.77;5.75;;;24.50;97.00;;;;;;4877769;29;20052;-81
2023/06/26 11:57:40;;;;;;;9.80;5.10;;;24.20;96.80;;;;;;4899160;29;20056;-81
2023/06/26 12:00:26;;;;;;;10.63;5.28;;;24.00;96.90;;;;;;4892671;29;20059;-81
2023/06/26 12:03:12;;;;;;;10.85;5.93;;;23.90;97.20;;;;;;4878493;29;20044;-81
2023/06/26 12:05:59;;;;;;;8.45;5.35;;;23.50;97.90;;;;;;4899133;29;20068;-80
2023/06/26 12:08:45;;;;;;;8.43;5.85;;;23.30;98.50;;;;;;4885792;29;20430;-80
2023/06/26 12:11:31;;;;;;;15.23;7.05;;;23.30;99.10;;;;;;4888299;29;20127;-81
2023/06/26 12:14:18;;;;;;;11.65;6.18;;;23.00;99.50;;;;;;4895288;29;20049;-81
2023/06/26 12:17:05;;;;;;;9.02;6.90;;;22.90;99.90;;;;;;4886565;29;20051;-81
2023/06/26 12:19:51;;;;;;;10.60;6.47;;;22.70;99.90;;;;;;4904179;29;20063;-81
2023/06/26 12:22:38;;;;;;;12.18;6.60;;;22.70;99.90;;;;;;4902177;29;20443;-81
2023/06/26 12:25:24;;;;;;;11.70;6.77;;;22.70;99.90;;;;;;4890304;29;20119;-80
2023/06/26 12:28:17;;;;;;;11.13;7.05;;;22.60;99.90;;;;;;4884451;29;20048;-80
2023/06/26 12:31:15;;;;;;;13.63;7.35;;;22.60;99.90;;;;;;4886737;29;20032;-81
2023/06/26 12:34:01;;;;;;;10.60;6.85;;;22.70;99.90;;;;;;4894794;29;20047;-81
2023/06/26 12:36:48;;;;;;;17.67;8.45;;;22.70;99.90;;;;;;4899811;29;20109;-81
2023/06/26 12:39:48;;;;;;;13.30;7.73;;;22.60;99.90;;;;;;4896714;29;20059;-82
2023/06/26 12:42:34;;;;;;;18.00;8.07;;;22.60;99.90;;;;;;4892244;29;20065;-82
2023/06/26 12:45:25;;;;;;;10.23;7.82;;;22.70;99.90;;;;;;4879928;29;20478;-81
2023/06/26 12:48:12;;;;;;;13.57;8.25;;;22.70;99.90;;;;;;4888965;29;20048;-81
2023/06/26 12:50:58;;;;;;;16.30;9.32;;;22.80;99.90;;;;;;4889435;29;20507;-81
2023/06/26 12:53:44;;;;;;;16.02;9.55;;;22.80;99.90;;;;;;4883936;29;20052;-82
2023/06/26 12:56:30;;;;;;;15.25;9.10;;;22.80;99.90;;;;;;4886152;29;20040;-81
2023/06/26 12:59:16;;;;;;;14.07;9.13;;;22.90;99.90;;;;;;4901963;29;20044;-81
2023/06/26 13:02:05;;;;;;;15.05;8.75;;;22.90;99.90;;;;;;4885338;29;20131;-81
2023/06/26 13:04:51;;;;;;;13.77;9.00;;;22.90;99.90;;;;;;4884427;29;20040;-81
2023/06/26 13:07:37;;;;;;;14.52;9.65;;;23.00;99.90;;;;;;4895895;29;20044;-80
2023/06/26 13:10:23;;;;;;;16.73;9.45;;;23.00;99.90;;;;;;4888144;29;20415;-80
2023/06/26 13:13:10;;;;;;;17.40;8.55;;;23.20;99.90;;;;;;4905502;29;20066;-81
2023/06/26 13:15:56;;;;;;;16.63;8.85;;;23.50;99.90;;;;;;4888106;29;20051;-80
2023/06/26 13:18:42;;;;;;;14.55;8.88;;;23.50;99.90;;;;;;4884563;29;20044;-81
2023/06/26 13:21:28;;;;;;;9.60;6.40;;;23.40;99.90;;;;;;4887237;29;20099;-81
2023/06/26 13:24:15;;;;;;;13.43;6.28;;;22.90;99.90;;;;;;4887222;29;20037;-81
2023/06/26 13:27:01;;;;;;;10.45;5.72;;;22.70;99.90;;;;;;4880082;29;20072;-81
2023/06/26 13:29:48;;;;;;;11.88;5.32;;;22.60;99.90;;;;;;4893481;29;20044;-83
2023/06/26 13:32:34;;;;;;;14.73;5.47;;;22.60;99.90;;;;;;4914324;29;20048;-81
2023/06/26 13:35:20;;;;;;;10.38;5.53;;;22.90;99.90;;;;;;4877331;29;20044;-81
2023/06/26 13:38:06;;;;;;;8.73;5.28;;;23.20;99.90;;;;;;4870790;29;20500;-82
2023/06/26 13:40:52;;;;;;;9.25;4.97;;;23.40;99.90;;;;;;4889095;29;20116;-81
2023/06/26 13:43:38;;;;;;;9.35;5.15;;;23.70;99.90;;;;;;4897409;29;20051;-82
2023/06/26 13:46:24;;;;;;;10.80;5.03;;;23.70;98.90;;;;;;4889805;29;20051;-82
2023/06/26 13:49:10;;;;;;;7.55;4.80;;;23.50;98.60;;;;;;4882924;29;20454;-81
2023/06/26 13:51:56;;;;;;;9.27;4.45;;;23.60;98.10;;;;;;4888412;29;20043;-84
2023/06/26 13:54:42;;;;;;;7.65;4.68;;;23.70;97.50;;;;;;4890288;29;20051;-81
2023/06/26 13:57:30;;;;;;;9.20;4.93;;;23.70;97.50;;;;;;4899503;29;20095;-81
2023/06/26 14:00:19;;;;;;;7.23;4.67;;;23.70;97.50;;;;;;4893842;29;20048;-81
2023/06/26 14:03:09;;;;;;;9.77;5.10;;;23.90;97.10;;;;;;4883927;29;20627;-82
2023/06/26 14:05:55;;;;;;;9.85;3.97;;;24.10;96.40;;;;;;4884175;29;20044;-82
2023/06/26 14:08:41;;;;;;;8.57;4.10;;;24.20;96.30;;;;;;4883294;29;20036;-81
2023/06/26 14:11:27;;;;;;;7.95;4.32;;;24.40;96.80;;;;;;4885105;29;20052;-81
2023/06/26 14:14:13;;;;;;;7.82;4.13;;;24.30;95.20;;;;;;4892906;29;20046;-83
2023/06/26 14:16:59;;;;;;;6.25;3.33;;;24.30;95.70;;;;;;4867667;29;20044;-81
2023/06/26 14:19:46;;;;;;;9.45;4.07;;;24.30;95.20;;;;;;4900991;29;20460;-80
2023/06/26 14:22:32;;;;;;;10.23;3.67;;;24.10;94.90;;;;;;4901529;29;20044;-81
2023/06/26 14:25:18;;;;;;;5.75;3.40;;;24.00;95.20;;;;;;4885465;29;20434;-81
2023/06/26 14:28:04;;;;;;;8.90;3.63;;;24.10;95.60;;;;;;4883415;29;20395;-81